Terminal Aerodrome Forecast
Issued by NWS Charleston, WV

Current Version | Previous Version | Text Only | Print | Product List | Glossary Off
Versions: 1 2 3 4 5 6 7 8 9 10 11 12 13 14 15 16 17 18 19 20 21 22 23 24 25 26 27 28

215
FTUS41 KRLX 221731
TAFBKW
TAF
KBKW 221731Z 2218/2318 01008KT 4SM -SHRA BR BKN004 OVC008
      TEMPO 2218/2222 2SM SHRA OVC004
     FM222200 02007KT 5SM -SHRA BR OVC003
     FM230800 07007KT P6SM OVC006
     FM231100 11009KT 5SM SHRA OVC008=

USA.gov is the U.S. government's official web portal to all federal, state and local government web resources and services.